Time;durP1;ratioP1;P1;durP2;ratioP2;P2;SDS_P1;SDS_P2;PMS_P1;PMS_P2;Temp;Humidity;BMP_temperature;BMP_pressure;BME280_temperature;BME280_humidity;BME280_pressure;Samples;Min_cycle;Max_cycle;Signal;HPM_P1;HPM_P2
2022/04/17 00:01:56;;;;;;;6.20;5.47;;;;;;;;;;5061613;28;20414;-85
2022/04/17 00:04:22;;;;;;;8.43;6.40;;;;;;;;;;5061445;28;20431;-86
2022/04/17 00:06:48;;;;;;;9.57;5.90;;;;;;;;;;5062095;28;20457;-85
2022/04/17 00:09:14;;;;;;;6.87;5.33;;;;;;;;;;5060945;28;20466;-87
2022/04/17 00:11:41;;;;;;;7.97;6.33;;;;;;;;;;5060766;28;20834;-87
2022/04/17 00:14:10;;;;;;;8.90;5.73;;;;;;;;;;5061552;28;20440;-87
2022/04/17 00:16:36;;;;;;;9.07;5.53;;;;;;;;;;5043136;28;20409;-86
2022/04/17 00:19:02;;;;;;;7.70;6.27;;;;;;;;;;5060843;28;20406;-86
2022/04/17 00:21:28;;;;;;;6.40;4.83;;;;;;;;;;5061182;28;20429;-87
2022/04/17 00:23:54;;;;;;;8.10;5.67;;;;;;;;;;5060466;28;20960;-87
2022/04/17 00:26:20;;;;;;;6.37;4.60;;;;;;;;;;5061856;28;20442;-87
2022/04/17 00:28:46;;;;;;;6.20;4.23;;;;;;;;;;5061431;28;20428;-87
2022/04/17 00:31:12;;;;;;;6.47;5.80;;;;;;;;;;5060753;28;20941;-86
2022/04/17 00:33:38;;;;;;;8.87;5.73;;;;;;;;;;5072080;28;20428;-87
2022/04/17 00:36:04;;;;;;;5.93;4.73;;;;;;;;;;5066790;28;20409;-86
2022/04/17 00:38:30;;;;;;;5.80;4.70;;;;;;;;;;5049242;28;20481;-86
2022/04/17 00:40:56;;;;;;;5.40;4.80;;;;;;;;;;5066441;28;20994;-85
2022/04/17 00:43:27;;;;;;;8.57;5.33;;;;;;;;;;5047731;28;20429;-86
2022/04/17 00:45:56;;;;;;;6.87;5.17;;;;;;;;;;5065585;28;20429;-86
2022/04/17 00:48:22;;;;;;;5.87;5.20;;;;;;;;;;5064913;28;20453;-86
2022/04/17 00:50:50;;;;;;;7.10;5.20;;;;;;;;;;5065037;28;20453;-85
2022/04/17 00:53:17;;;;;;;7.17;4.97;;;;;;;;;;5062224;28;20480;-85
2022/04/17 00:55:43;;;;;;;5.67;4.93;;;;;;;;;;5041356;28;20466;-85
2022/04/17 00:58:09;;;;;;;7.20;5.30;;;;;;;;;;5058853;28;20405;-86
2022/04/17 01:00:35;;;;;;;7.13;5.00;;;;;;;;;;5059581;28;20444;-86
2022/04/17 01:03:01;;;;;;;6.00;4.90;;;;;;;;;;5060239;28;20439;-86
2022/04/17 01:05:28;;;;;;;5.90;4.60;;;;;;;;;;5061284;28;20893;-85
2022/04/17 01:07:54;;;;;;;7.80;4.73;;;;;;;;;;5060106;28;20445;-85
2022/04/17 01:10:20;;;;;;;5.70;4.40;;;;;;;;;;5042405;28;20437;-85
2022/04/17 01:12:46;;;;;;;6.90;4.63;;;;;;;;;;5061117;28;20424;-85
2022/04/17 01:15:12;;;;;;;8.17;5.40;;;;;;;;;;5062672;28;20397;-86
2022/04/17 01:17:38;;;;;;;8.00;5.13;;;;;;;;;;5061155;28;20933;-85
2022/04/17 01:20:06;;;;;;;6.97;4.57;;;;;;;;;;5043378;28;20512;-86
2022/04/17 01:22:32;;;;;;;6.07;4.90;;;;;;;;;;5033136;28;20442;-86
2022/04/17 01:27:43;;;;;;;6.57;5.13;;;;;;;;;;5041558;28;20441;-86
2022/04/17 01:30:10;;;;;;;6.00;5.10;;;;;;;;;;5023657;28;20431;-86
2022/04/17 01:32:36;;;;;;;9.90;6.03;;;;;;;;;;5041811;28;20398;-86
2022/04/17 01:35:02;;;;;;;6.40;5.50;;;;;;;;;;5025236;28;20411;-84
2022/04/17 01:37:28;;;;;;;5.60;4.80;;;;;;;;;;5052988;28;20470;-86
2022/04/17 01:39:54;;;;;;;7.87;5.63;;;;;;;;;;5046143;28;20910;-86
2022/04/17 01:42:20;;;;;;;6.93;5.27;;;;;;;;;;5026944;28;20425;-87
2022/04/17 01:44:46;;;;;;;5.70;5.10;;;;;;;;;;5043315;28;20411;-86
2022/04/17 01:47:12;;;;;;;6.93;5.17;;;;;;;;;;5043422;28;20528;-85
2022/04/17 01:49:38;;;;;;;5.20;4.70;;;;;;;;;;5043513;28;20449;-86
2022/04/17 01:52:05;;;;;;;6.80;5.43;;;;;;;;;;5024495;28;20418;-86
2022/04/17 01:54:32;;;;;;;5.90;5.20;;;;;;;;;;5025047;28;20411;-86
2022/04/17 01:56:58;;;;;;;6.90;5.93;;;;;;;;;;5024357;28;20414;-85
2022/04/17 01:59:24;;;;;;;8.33;5.63;;;;;;;;;;5041472;28;20493;-85
2022/04/17 02:01:51;;;;;;;6.80;5.13;;;;;;;;;;5041119;28;20431;-86
2022/04/17 02:04:17;;;;;;;6.23;5.50;;;;;;;;;;5040750;28;20913;-85
2022/04/17 02:06:44;;;;;;;5.53;4.90;;;;;;;;;;5023383;28;20450;-86
2022/04/17 02:09:11;;;;;;;6.03;4.90;;;;;;;;;;5040861;28;20406;-86
2022/04/17 02:11:38;;;;;;;7.03;5.27;;;;;;;;;;5041391;28;20514;-86
2022/04/17 02:14:06;;;;;;;7.73;5.87;;;;;;;;;;5040825;28;20875;-86
2022/04/17 02:16:32;;;;;;;9.40;5.70;;;;;;;;;;5042504;28;20425;-86
2022/04/17 02:19:00;;;;;;;7.60;5.03;;;;;;;;;;5052245;28;20399;-86
2022/04/17 02:21:28;;;;;;;6.87;5.20;;;;;;;;;;5041967;28;20427;-86
2022/04/17 02:23:54;;;;;;;8.10;5.00;;;;;;;;;;5023845;28;20417;-86
2022/04/17 02:26:20;;;;;;;5.30;4.80;;;;;;;;;;5023378;28;20790;-86
2022/04/17 02:28:47;;;;;;;6.50;4.67;;;;;;;;;;5041629;28;20978;-86
2022/04/17 02:31:13;;;;;;;6.23;5.30;;;;;;;;;;5042014;28;20426;-87
2022/04/17 02:33:40;;;;;;;5.50;5.00;;;;;;;;;;5043054;28;20406;-86
2022/04/17 02:36:06;;;;;;;12.17;6.23;;;;;;;;;;5042171;28;20398;-85
2022/04/17 02:38:32;;;;;;;6.97;5.33;;;;;;;;;;5023996;28;20498;-86
2022/04/17 02:40:58;;;;;;;7.00;5.80;;;;;;;;;;5041160;28;20430;-86
2022/04/17 02:43:24;;;;;;;9.27;6.20;;;;;;;;;;5041314;28;20867;-86
2022/04/17 02:45:51;;;;;;;7.17;5.40;;;;;;;;;;5041194;28;20414;-85
2022/04/17 02:48:17;;;;;;;6.87;5.13;;;;;;;;;;5042320;28;20442;-85
2022/04/17 02:50:43;;;;;;;6.30;5.00;;;;;;;;;;5022873;28;20482;-86
2022/04/17 02:53:09;;;;;;;8.47;6.03;;;;;;;;;;5040547;28;20407;-86
2022/04/17 02:55:35;;;;;;;6.30;5.60;;;;;;;;;;5027634;28;20421;-86
2022/04/17 02:58:01;;;;;;;7.73;5.43;;;;;;;;;;5042690;28;20415;-86
2022/04/17 03:00:27;;;;;;;9.57;6.37;;;;;;;;;;5039132;28;20456;-86
2022/04/17 03:05:39;;;;;;;8.37;6.27;;;;;;;;;;5021567;28;20480;-86
2022/04/17 03:08:13;;;;;;;9.60;6.20;;;;;;;;;;5003353;28;20455;-86
2022/04/17 03:10:40;;;;;;;7.83;5.63;;;;;;;;;;5019675;28;20427;-85
2022/04/17 03:13:06;;;;;;;8.47;6.70;;;;;;;;;;5020261;28;20407;-86
2022/04/17 03:15:33;;;;;;;9.20;7.13;;;;;;;;;;5020524;28;20951;-86
2022/04/17 03:18:00;;;;;;;7.73;6.27;;;;;;;;;;5019842;28;20795;-85
2022/04/17 03:20:26;;;;;;;7.93;6.07;;;;;;;;;;5019345;28;20439;-86
2022/04/17 03:22:52;;;;;;;8.70;6.50;;;;;;;;;;5019215;28;20406;-86
2022/04/17 03:25:18;;;;;;;6.87;6.03;;;;;;;;;;5020403;28;20473;-86
2022/04/17 03:27:46;;;;;;;7.93;6.80;;;;;;;;;;5020679;28;20450;-86
2022/04/17 03:30:14;;;;;;;8.77;7.87;;;;;;;;;;5021023;28;20430;-85
2022/04/17 03:32:41;;;;;;;9.90;7.07;;;;;;;;;;5003871;28;20408;-86
2022/04/17 03:35:07;;;;;;;11.27;7.70;;;;;;;;;;5023486;28;20404;-87
2022/04/17 03:37:33;;;;;;;7.57;6.03;;;;;;;;;;5023497;28;20404;-85
2022/04/17 03:39:59;;;;;;;9.53;7.50;;;;;;;;;;5023236;28;20435;-87
2022/04/17 03:42:25;;;;;;;8.73;7.33;;;;;;;;;;5008155;28;20443;-86
2022/04/17 03:44:51;;;;;;;9.63;6.50;;;;;;;;;;5053390;28;20417;-87
2022/04/17 03:47:17;;;;;;;8.27;6.30;;;;;;;;;;5061041;28;20449;-86
2022/04/17 03:49:43;;;;;;;9.93;6.83;;;;;;;;;;5061436;28;20501;-86
2022/04/17 03:52:09;;;;;;;6.50;5.90;;;;;;;;;;5060807;28;20471;-86
2022/04/17 03:54:35;;;;;;;10.47;7.17;;;;;;;;;;5043046;28;20412;-87
2022/04/17 03:57:01;;;;;;;10.53;7.00;;;;;;;;;;5042598;28;20955;-87
2022/04/17 03:59:27;;;;;;;8.10;7.27;;;;;;;;;;5060378;28;20398;-87
2022/04/17 04:01:53;;;;;;;10.87;7.47;;;;;;;;;;5042861;28;20409;-86
2022/04/17 04:04:20;;;;;;;9.60;7.00;;;;;;;;;;5059828;28;20432;-84
2022/04/17 04:06:46;;;;;;;8.00;6.93;;;;;;;;;;5060077;28;20857;-86
2022/04/17 04:09:12;;;;;;;8.77;6.40;;;;;;;;;;5059252;28;20452;-86
2022/04/17 04:11:38;;;;;;;10.87;7.40;;;;;;;;;;5059198;28;20503;-86
2022/04/17 04:14:05;;;;;;;7.47;6.60;;;;;;;;;;5041165;28;20402;-86
2022/04/17 04:16:31;;;;;;;11.07;7.03;;;;;;;;;;5058654;28;20478;-84
2022/04/17 04:18:57;;;;;;;9.40;7.60;;;;;;;;;;5055638;28;20413;-85
2022/04/17 04:21:23;;;;;;;8.10;6.73;;;;;;;;;;5037493;28;20422;-85
2022/04/17 04:23:49;;;;;;;8.10;6.10;;;;;;;;;;5055146;28;20405;-85
2022/04/17 04:26:15;;;;;;;11.57;7.17;;;;;;;;;;5037278;28;20406;-85
2022/04/17 04:28:41;;;;;;;9.03;6.57;;;;;;;;;;5037487;28;20984;-85
2022/04/17 04:31:11;;;;;;;9.50;7.70;;;;;;;;;;5055259;28;20428;-86
2022/04/17 04:33:39;;;;;;;8.27;6.97;;;;;;;;;;5056518;28;20429;-85
2022/04/17 04:36:06;;;;;;;11.47;7.73;;;;;;;;;;5041567;28;20417;-86
2022/04/17 04:38:33;;;;;;;14.50;6.97;;;;;;;;;;5059489;28;20459;-86
2022/04/17 04:40:59;;;;;;;7.40;6.57;;;;;;;;;;5061069;28;20421;-86
2022/04/17 04:43:25;;;;;;;7.50;6.30;;;;;;;;;;5061439;28;20424;-86
2022/04/17 04:46:06;;;;;;;10.30;6.87;;;;;;;;;;5070309;28;20418;-85
2022/04/17 04:51:17;;;;;;;10.30;7.50;;;;;;;;;;5087011;22;20561;-80
2022/04/17 04:53:44;;;;;;;8.40;7.00;;;;;;;;;;5068325;28;20443;-81
2022/04/17 04:56:10;;;;;;;9.20;6.70;;;;;;;;;;5070462;28;20401;-79
2022/04/17 04:58:36;;;;;;;8.23;6.80;;;;;;;;;;5048075;28;20901;-80
2022/04/17 05:01:03;;;;;;;7.03;6.33;;;;;;;;;;5068960;28;20416;-80
2022/04/17 05:03:29;;;;;;;8.10;6.73;;;;;;;;;;5069275;28;20418;-80
2022/04/17 05:05:55;;;;;;;7.87;6.47;;;;;;;;;;5069092;28;20468;-80
2022/04/17 05:08:21;;;;;;;7.03;6.30;;;;;;;;;;5068558;28;20448;-80
2022/04/17 05:10:47;;;;;;;8.50;5.70;;;;;;;;;;5069226;28;20417;-80
2022/04/17 05:13:14;;;;;;;8.03;6.40;;;;;;;;;;5068166;28;20803;-82
2022/04/17 05:15:40;;;;;;;8.50;6.33;;;;;;;;;;5068825;28;20496;-80
2022/04/17 05:18:06;;;;;;;7.57;5.87;;;;;;;;;;5068440;28;20405;-80
2022/04/17 05:20:35;;;;;;;7.80;5.70;;;;;;;;;;5070908;28;20436;-80
2022/04/17 05:23:15;;;;;;;9.97;6.40;;;;;;;;;;5071449;28;20406;-80
2022/04/17 05:26:02;;;;;;;8.40;6.50;;;;;;;;;;5072098;28;20394;-80
2022/04/17 05:28:29;;;;;;;7.00;5.43;;;;;;;;;;5072635;28;20445;-80
2022/04/17 05:30:55;;;;;;;6.83;5.80;;;;;;;;;;5072561;28;20433;-80
2022/04/17 05:33:21;;;;;;;6.73;5.70;;;;;;;;;;5072810;28;20407;-81
2022/04/17 05:35:51;;;;;;;8.10;6.03;;;;;;;;;;5072465;28;20408;-81
2022/04/17 05:38:18;;;;;;;6.77;5.63;;;;;;;;;;5072144;28;20477;-80
2022/04/17 05:40:53;;;;;;;6.50;5.90;;;;;;;;;;5072166;28;20422;-81
2022/04/17 05:43:20;;;;;;;6.53;5.60;;;;;;;;;;5072331;28;20807;-80
2022/04/17 05:45:48;;;;;;;9.50;5.43;;;;;;;;;;5072503;28;20500;-80
2022/04/17 05:48:14;;;;;;;6.73;5.73;;;;;;;;;;5072081;28;20452;-80
2022/04/17 05:50:41;;;;;;;6.00;5.33;;;;;;;;;;5071954;28;20437;-81
2022/04/17 05:53:07;;;;;;;6.20;5.30;;;;;;;;;;5071826;28;20455;-81
2022/04/17 05:55:34;;;;;;;6.20;5.40;;;;;;;;;;5072227;28;20401;-80
2022/04/17 05:58:01;;;;;;;5.20;4.67;;;;;;;;;;5072640;28;20428;-80
2022/04/17 06:00:27;;;;;;;5.47;4.83;;;;;;;;;;5073937;28;20421;-79
2022/04/17 06:02:54;;;;;;;4.63;4.23;;;;;;;;;;5073638;28;20402;-80
2022/04/17 06:05:20;;;;;;;5.40;4.40;;;;;;;;;;5073831;28;20402;-79
2022/04/17 06:07:46;;;;;;;5.10;4.20;;;;;;;;;;5071836;28;20441;-80
2022/04/17 06:10:13;;;;;;;6.07;4.53;;;;;;;;;;5064475;28;20417;-80
2022/04/17 06:12:39;;;;;;;6.70;4.50;;;;;;;;;;5067482;28;20393;-81
2022/04/17 06:15:06;;;;;;;7.70;5.00;;;;;;;;;;5069068;28;20413;-80
2022/04/17 06:17:37;;;;;;;5.53;4.90;;;;;;;;;;5068312;28;20414;-81
2022/04/17 06:20:06;;;;;;;5.60;4.80;;;;;;;;;;5067940;28;20401;-81
2022/04/17 06:22:34;;;;;;;6.60;5.00;;;;;;;;;;5066803;28;20476;-81
2022/04/17 06:25:01;;;;;;;5.90;4.27;;;;;;;;;;5069422;28;20414;-81
2022/04/17 06:27:27;;;;;;;6.50;5.00;;;;;;;;;;5068268;28;20449;-81
2022/04/17 06:29:53;;;;;;;5.53;4.10;;;;;;;;;;5049913;28;20417;-81
2022/04/17 06:32:19;;;;;;;6.50;4.30;;;;;;;;;;5066323;28;20424;-80
2022/04/17 06:34:45;;;;;;;5.90;4.50;;;;;;;;;;5064999;28;20492;-80
2022/04/17 06:37:11;;;;;;;6.60;4.80;;;;;;;;;;5065829;28;20390;-81
2022/04/17 06:39:37;;;;;;;5.30;4.00;;;;;;;;;;5048163;28;20413;-81
2022/04/17 06:42:03;;;;;;;5.47;4.67;;;;;;;;;;5064567;28;20429;-80
2022/04/17 06:44:29;;;;;;;5.60;4.10;;;;;;;;;;5067632;28;20403;-81
2022/04/17 06:46:55;;;;;;;4.97;3.67;;;;;;;;;;5069450;28;20491;-81
2022/04/17 06:49:21;;;;;;;6.10;4.43;;;;;;;;;;5069162;28;20406;-81
2022/04/17 06:51:47;;;;;;;6.93;4.03;;;;;;;;;;5069442;28;20444;-81
2022/04/17 06:54:13;;;;;;;5.30;3.90;;;;;;;;;;5070171;28;20405;-81
2022/04/17 06:56:39;;;;;;;5.07;4.10;;;;;;;;;;5069826;28;20420;-82
2022/04/17 06:59:06;;;;;;;6.40;3.83;;;;;;;;;;5069046;28;20414;-81
2022/04/17 07:01:32;;;;;;;7.33;4.00;;;;;;;;;;5069891;28;20941;-81
2022/04/17 07:03:58;;;;;;;5.23;4.53;;;;;;;;;;5070263;28;20397;-81
2022/04/17 07:06:24;;;;;;;5.00;4.13;;;;;;;;;;5065328;28;20474;-81
2022/04/17 07:08:50;;;;;;;3.97;3.57;;;;;;;;;;5071020;28;20468;-81
2022/04/17 07:11:19;;;;;;;6.53;3.77;;;;;;;;;;5071177;28;20468;-81
2022/04/17 07:13:46;;;;;;;6.40;4.10;;;;;;;;;;5070395;28;20405;-81
2022/04/17 07:16:12;;;;;;;5.80;4.40;;;;;;;;;;5028728;28;20417;-81
2022/04/17 07:18:38;;;;;;;5.77;3.90;;;;;;;;;;5031578;28;20471;-81
2022/04/17 07:21:04;;;;;;;3.83;3.43;;;;;;;;;;5042897;28;20965;-81
2022/04/17 07:23:30;;;;;;;4.73;3.40;;;;;;;;;;5028815;28;20407;-80
2022/04/17 07:25:57;;;;;;;4.90;3.47;;;;;;;;;;5028481;28;20504;-81
2022/04/17 07:28:23;;;;;;;6.10;3.13;;;;;;;;;;5031768;28;20501;-81
2022/04/17 07:30:50;;;;;;;4.00;3.47;;;;;;;;;;5043728;28;20839;-81
2022/04/17 07:33:19;;;;;;;4.70;3.40;;;;;;;;;;5039697;28;20419;-80
2022/04/17 07:35:45;;;;;;;3.83;3.43;;;;;;;;;;5044493;28;20414;-81
2022/04/17 07:38:11;;;;;;;4.20;3.40;;;;;;;;;;5046078;28;20898;-80
2022/04/17 07:40:37;;;;;;;4.37;3.37;;;;;;;;;;5045111;28;20442;-81
2022/04/17 07:43:04;;;;;;;4.77;3.17;;;;;;;;;;5010689;28;20447;-80
2022/04/17 07:45:31;;;;;;;3.93;3.10;;;;;;;;;;5026639;28;20419;-81
2022/04/17 07:47:57;;;;;;;4.40;3.73;;;;;;;;;;5041232;28;20449;-81
2022/04/17 07:50:31;;;;;;;4.37;3.67;;;;;;;;;;5045155;28;20838;-81
2022/04/17 07:52:58;;;;;;;5.37;3.60;;;;;;;;;;5045345;28;20390;-80
2022/04/17 07:55:24;;;;;;;4.70;3.30;;;;;;;;;;5046435;28;20406;-81
2022/04/17 07:58:03;;;;;;;4.30;3.03;;;;;;;;;;5045871;28;20421;-81
2022/04/17 08:00:31;;;;;;;4.20;3.40;;;;;;;;;;5046386;28;20490;-81
2022/04/17 08:03:10;;;;;;;4.90;3.50;;;;;;;;;;5047737;28;20414;-81
2022/04/17 08:05:39;;;;;;;5.17;3.97;;;;;;;;;;5030890;28;20410;-81
2022/04/17 08:08:09;;;;;;;5.80;3.17;;;;;;;;;;5047987;28;20457;-81
2022/04/17 08:10:36;;;;;;;5.17;3.60;;;;;;;;;;5030715;28;20434;-81
2022/04/17 08:13:02;;;;;;;4.90;3.30;;;;;;;;;;5048407;28;20402;-81
2022/04/17 08:15:28;;;;;;;6.77;3.43;;;;;;;;;;5048040;28;20458;-81
2022/04/17 08:17:54;;;;;;;3.83;3.27;;;;;;;;;;5048645;28;20406;-81
2022/04/17 08:20:20;;;;;;;4.87;3.43;;;;;;;;;;5048302;28;20455;-81
2022/04/17 08:22:47;;;;;;;4.23;3.00;;;;;;;;;;5048344;28;20405;-81
2022/04/17 08:25:13;;;;;;;3.90;2.83;;;;;;;;;;5048418;28;20403;-80
2022/04/17 08:27:46;;;;;;;3.37;3.03;;;;;;;;;;5048113;28;20441;-81
2022/04/17 08:30:13;;;;;;;5.53;3.00;;;;;;;;;;5048270;28;20490;-80
2022/04/17 08:32:39;;;;;;;4.63;3.40;;;;;;;;;;5030874;28;20414;-80
2022/04/17 08:35:06;;;;;;;6.37;3.30;;;;;;;;;;5048463;28;20399;-80
2022/04/17 08:37:32;;;;;;;3.43;2.83;;;;;;;;;;5047914;28;20414;-80
2022/04/17 08:39:58;;;;;;;6.90;3.50;;;;;;;;;;5047662;28;20849;-80
2022/04/17 08:42:24;;;;;;;5.20;3.43;;;;;;;;;;5048400;28;20753;-81
2022/04/17 08:44:51;;;;;;;4.17;2.83;;;;;;;;;;5048719;28;20403;-80
2022/04/17 08:47:17;;;;;;;5.00;3.73;;;;;;;;;;5048443;28;20477;-80
2022/04/17 08:49:44;;;;;;;6.70;3.37;;;;;;;;;;5048372;28;20413;-81
2022/04/17 08:52:15;;;;;;;8.30;3.80;;;;;;;;;;5048861;28;20434;-81
2022/04/17 08:54:41;;;;;;;4.13;3.10;;;;;;;;;;5051036;28;20383;-80
2022/04/17 08:57:07;;;;;;;4.60;3.53;;;;;;;;;;5034723;28;20434;-81
2022/04/17 08:59:33;;;;;;;8.17;3.10;;;;;;;;;;5051629;28;20414;-80
2022/04/17 09:02:07;;;;;;;6.07;3.60;;;;;;;;;;5051105;28;20441;-81
2022/04/17 09:04:34;;;;;;;6.20;3.80;;;;;;;;;;5052233;28;20414;-81
2022/04/17 09:07:01;;;;;;;12.50;3.80;;;;;;;;;;5050239;28;20446;-80
2022/04/17 09:09:28;;;;;;;4.67;3.20;;;;;;;;;;5030249;28;20440;-81
2022/04/17 09:11:55;;;;;;;4.90;3.30;;;;;;;;;;5047932;28;20468;-81
2022/04/17 09:14:23;;;;;;;5.53;4.37;;;;;;;;;;5047359;28;20402;-80
2022/04/17 09:16:52;;;;;;;5.97;4.10;;;;;;;;;;5047319;28;20894;-80
2022/04/17 09:19:19;;;;;;;7.17;3.77;;;;;;;;;;5051195;28;20405;-79
2022/04/17 09:21:45;;;;;;;4.97;4.47;;;;;;;;;;5036010;28;20445;-80
2022/04/17 09:24:27;;;;;;;4.03;3.17;;;;;;;;;;5051678;28;20474;-81
2022/04/17 09:26:56;;;;;;;4.13;3.47;;;;;;;;;;5051337;28;20545;-80
2022/04/17 09:29:23;;;;;;;4.40;3.10;;;;;;;;;;5051302;28;20488;-81
2022/04/17 09:31:56;;;;;;;5.50;3.37;;;;;;;;;;5051428;28;20478;-80
2022/04/17 09:34:22;;;;;;;4.90;3.50;;;;;;;;;;5050719;28;20387;-80
2022/04/17 09:36:52;;;;;;;4.60;3.67;;;;;;;;;;5051618;28;20406;-81
2022/04/17 09:39:20;;;;;;;4.47;3.27;;;;;;;;;;5050689;28;20899;-81
2022/04/17 09:41:56;;;;;;;6.80;3.50;;;;;;;;;;5050458;28;20425;-81
2022/04/17 09:44:36;;;;;;;5.30;3.50;;;;;;;;;;5048396;28;20474;-81
2022/04/17 09:47:03;;;;;;;4.93;4.10;;;;;;;;;;5049366;28;20450;-81
2022/04/17 09:49:30;;;;;;;5.13;3.43;;;;;;;;;;5048742;28;20476;-81
2022/04/17 09:52:09;;;;;;;6.57;4.27;;;;;;;;;;5049084;28;20494;-81
2022/04/17 09:54:35;;;;;;;5.90;3.57;;;;;;;;;;5049929;28;20386;-81
2022/04/17 09:57:01;;;;;;;3.80;3.07;;;;;;;;;;5048662;28;20498;-81
2022/04/17 09:59:28;;;;;;;6.80;3.50;;;;;;;;;;5049383;28;20399;-81
2022/04/17 10:01:58;;;;;;;4.50;3.80;;;;;;;;;;5049611;28;20457;-81
2022/04/17 10:04:25;;;;;;;4.60;3.20;;;;;;;;;;5051554;28;20398;-80
2022/04/17 10:06:52;;;;;;;3.83;3.20;;;;;;;;;;5050023;28;20407;-81
2022/04/17 10:09:18;;;;;;;4.77;3.30;;;;;;;;;;5051483;28;20399;-81
2022/04/17 10:11:45;;;;;;;9.40;3.30;;;;;;;;;;5050212;28;20453;-81
2022/04/17 10:14:11;;;;;;;6.97;3.87;;;;;;;;;;5050706;28;20429;-81
2022/04/17 10:16:41;;;;;;;4.80;3.13;;;;;;;;;;5049823;28;20398;-81
2022/04/17 10:19:11;;;;;;;4.93;3.83;;;;;;;;;;5033054;28;20418;-81
2022/04/17 10:21:42;;;;;;;6.37;3.37;;;;;;;;;;5050331;28;20445;-81
2022/04/17 10:24:17;;;;;;;5.20;3.10;;;;;;;;;;5049484;28;20415;-81
2022/04/17 10:26:47;;;;;;;4.20;3.43;;;;;;;;;;5055946;28;20460;-80
2022/04/17 10:29:16;;;;;;;4.37;3.40;;;;;;;;;;5057701;28;20398;-79
2022/04/17 10:32:09;;;;;;;6.67;4.10;;;;;;;;;;5040388;28;20415;-80
2022/04/17 10:34:35;;;;;;;5.10;3.80;;;;;;;;;;5057815;28;20376;-79
2022/04/17 10:37:13;;;;;;;4.03;3.50;;;;;;;;;;5058335;28;20409;-80
2022/04/17 10:39:42;;;;;;;6.30;4.37;;;;;;;;;;5040332;28;20422;-79
2022/04/17 10:42:09;;;;;;;4.87;4.30;;;;;;;;;;5057749;28;21016;-80
2022/04/17 10:44:41;;;;;;;4.90;3.23;;;;;;;;;;5040384;28;20410;-79
2022/04/17 10:47:07;;;;;;;7.63;3.90;;;;;;;;;;5057183;28;20438;-79
2022/04/17 10:49:51;;;;;;;5.63;4.27;;;;;;;;;;5056009;28;20458;-81
2022/04/17 10:52:25;;;;;;;4.10;3.60;;;;;;;;;;5064183;22;20485;-83
2022/04/17 10:54:51;;;;;;;5.17;4.03;;;;;;;;;;5043127;28;20493;-83
2022/04/17 10:57:23;;;;;;;4.80;3.83;;;;;;;;;;5044471;28;20410;-82
2022/04/17 10:59:49;;;;;;;7.13;4.23;;;;;;;;;;5041387;28;20387;-83
2022/04/17 11:02:18;;;;;;;5.80;4.13;;;;;;;;;;5040416;28;20422;-83
2022/04/17 11:04:54;;;;;;;7.03;4.60;;;;;;;;;;5041433;28;20414;-79
2022/04/17 11:07:21;;;;;;;5.77;4.73;;;;;;;;;;5057134;28;20437;-80
2022/04/17 11:09:47;;;;;;;7.33;6.50;;;;;;;;;;5050435;28;20410;-83
2022/04/17 11:12:19;;;;;;;4.23;3.83;;;;;;;;;;5040563;28;20414;-83
2022/04/17 11:14:57;;;;;;;6.20;4.57;;;;;;;;;;5039959;28;20399;-83
2022/04/17 11:17:23;;;;;;;4.83;4.33;;;;;;;;;;5039295;28;20444;-83
2022/04/17 11:19:52;;;;;;;5.83;4.40;;;;;;;;;;5040384;28;20410;-83
2022/04/17 11:22:18;;;;;;;4.90;4.40;;;;;;;;;;5042712;28;20453;-83
2022/04/17 11:24:57;;;;;;;5.50;4.43;;;;;;;;;;5050645;28;20411;-81
2022/04/17 11:27:32;;;;;;;5.73;4.07;;;;;;;;;;5039317;28;20438;-81
2022/04/17 11:29:58;;;;;;;5.50;3.73;;;;;;;;;;5028972;28;20398;-83
2022/04/17 11:32:27;;;;;;;4.87;4.03;;;;;;;;;;5027144;28;20427;-83
2022/04/17 11:34:54;;;;;;;5.67;3.90;;;;;;;;;;5053696;28;20399;-83
2022/04/17 11:37:20;;;;;;;5.17;4.70;;;;;;;;;;5047341;28;20461;-82
2022/04/17 11:39:47;;;;;;;4.97;4.37;;;;;;;;;;5042625;28;20406;-83
2022/04/17 11:42:13;;;;;;;6.67;3.30;;;;;;;;;;5026946;28;20434;-83
2022/04/17 11:44:42;;;;;;;4.20;3.77;;;;;;;;;;5042610;28;20779;-83
2022/04/17 11:47:10;;;;;;;4.37;3.10;;;;;;;;;;5041718;28;20572;-84
2022/04/17 11:49:43;;;;;;;5.70;3.47;;;;;;;;;;5041628;28;20395;-84
2022/04/17 11:52:12;;;;;;;5.83;3.40;;;;;;;;;;5041853;28;20461;-84
2022/04/17 11:54:38;;;;;;;3.33;2.80;;;;;;;;;;5023377;28;20418;-82
2022/04/17 11:57:04;;;;;;;6.17;3.30;;;;;;;;;;5023094;28;20418;-83
2022/04/17 11:59:44;;;;;;;3.67;3.13;;;;;;;;;;5039983;28;20411;-82
2022/04/17 12:02:12;;;;;;;6.33;2.77;;;;;;;;;;5041156;28;20497;-81
2022/04/17 12:04:38;;;;;;;3.70;2.70;;;;;;;;;;5042811;28;20397;-81
2022/04/17 12:07:05;;;;;;;5.20;2.60;;;;;;;;;;5039703;28;20454;-82
2022/04/17 12:09:31;;;;;;;3.03;2.20;;;;;;;;;;5021214;28;20421;-81
2022/04/17 12:11:57;;;;;;;3.40;2.80;;;;;;;;;;5039826;28;20434;-82
2022/04/17 12:14:29;;;;;;;3.20;2.70;;;;;;;;;;5039198;28;20434;-82
2022/04/17 12:16:55;;;;;;;4.57;2.53;;;;;;;;;;5047104;28;20435;-83
2022/04/17 12:19:22;;;;;;;3.20;2.43;;;;;;;;;;5019114;28;20407;-83
2022/04/17 12:21:48;;;;;;;3.17;2.57;;;;;;;;;;5020375;28;20501;-82
2022/04/17 12:24:14;;;;;;;2.73;2.27;;;;;;;;;;5039559;28;20403;-83
2022/04/17 12:26:41;;;;;;;3.33;2.87;;;;;;;;;;5040014;28;20410;-83
2022/04/17 12:29:07;;;;;;;4.50;2.60;;;;;;;;;;5041721;28;20798;-83
2022/04/17 12:31:37;;;;;;;2.70;2.20;;;;;;;;;;5026709;28;20426;-82
2022/04/17 12:34:22;;;;;;;3.43;2.60;;;;;;;;;;5044321;28;20413;-83
2022/04/17 12:36:49;;;;;;;3.50;2.40;;;;;;;;;;5043645;28;20383;-83
2022/04/17 12:39:16;;;;;;;2.97;2.57;;;;;;;;;;5026295;28;20914;-84
2022/04/17 12:41:43;;;;;;;3.90;2.53;;;;;;;;;;5045015;28;20422;-83
2022/04/17 12:44:09;;;;;;;3.17;2.50;;;;;;;;;;5044808;28;20403;-85
2022/04/17 12:46:42;;;;;;;2.83;2.53;;;;;;;;;;5045292;28;20399;-83
2022/04/17 12:49:08;;;;;;;5.70;2.97;;;;;;;;;;5026993;28;20422;-82
2022/04/17 12:51:35;;;;;;;3.90;2.67;;;;;;;;;;5045030;28;20934;-83
2022/04/17 12:54:02;;;;;;;4.97;2.73;;;;;;;;;;5044661;28;20481;-83
2022/04/17 12:56:28;;;;;;;3.70;2.93;;;;;;;;;;5026520;28;20464;-82
2022/04/17 12:58:55;;;;;;;4.80;3.53;;;;;;;;;;5044778;28;20414;-82
2022/04/17 13:01:22;;;;;;;7.50;3.00;;;;;;;;;;5043773;28;20481;-82
2022/04/17 13:03:49;;;;;;;4.10;2.90;;;;;;;;;;5026373;28;20411;-82
2022/04/17 13:06:22;;;;;;;3.37;2.87;;;;;;;;;;5044355;28;20413;-82
2022/04/17 13:09:07;;;;;;;5.27;2.60;;;;;;;;;;5043544;28;20461;-82
2022/04/17 13:11:34;;;;;;;3.80;2.87;;;;;;;;;;5042807;28;20426;-84
2022/04/17 13:14:02;;;;;;;3.13;2.80;;;;;;;;;;5043585;28;20430;-83
2022/04/17 13:16:28;;;;;;;7.00;2.73;;;;;;;;;;5025278;28;20438;-86
2022/04/17 13:18:54;;;;;;;3.10;2.50;;;;;;;;;;5043514;28;20410;-83
2022/04/17 13:21:20;;;;;;;4.60;3.00;;;;;;;;;;5042478;28;20473;-84
2022/04/17 13:23:47;;;;;;;5.40;2.87;;;;;;;;;;5043184;28;20512;-84
2022/04/17 13:26:13;;;;;;;2.77;2.20;;;;;;;;;;5043125;28;20402;-84
2022/04/17 13:28:42;;;;;;;4.03;3.07;;;;;;;;;;5046041;28;20441;-84
2022/04/17 13:31:08;;;;;;;4.53;3.20;;;;;;;;;;5044612;28;20434;-84
2022/04/17 13:33:34;;;;;;;3.87;3.07;;;;;;;;;;5046046;28;20403;-84
2022/04/17 13:36:01;;;;;;;5.53;3.63;;;;;;;;;;5042623;28;20494;-83
2022/04/17 13:38:27;;;;;;;4.07;3.07;;;;;;;;;;5043096;28;20485;-83
2022/04/17 13:40:53;;;;;;;4.47;3.17;;;;;;;;;;5041015;28;20541;-83
2022/04/17 13:43:23;;;;;;;3.43;2.80;;;;;;;;;;5042397;28;20438;-83
2022/04/17 13:45:49;;;;;;;3.90;2.77;;;;;;;;;;5043644;28;21021;-83
2022/04/17 13:48:15;;;;;;;3.40;2.60;;;;;;;;;;5042791;28;20454;-82
2022/04/17 13:50:41;;;;;;;4.77;2.80;;;;;;;;;;5045450;28;20505;-83
2022/04/17 13:53:07;;;;;;;3.20;2.50;;;;;;;;;;5042059;28;20457;-83
2022/04/17 13:55:35;;;;;;;3.90;2.40;;;;;;;;;;5026886;28;20410;-83
2022/04/17 13:58:01;;;;;;;3.40;2.60;;;;;;;;;;5053448;28;20406;-83
2022/04/17 14:00:28;;;;;;;5.23;3.07;;;;;;;;;;5055667;28;20411;-83
2022/04/17 14:02:54;;;;;;;4.87;3.00;;;;;;;;;;5025697;28;20440;-83
2022/04/17 14:05:20;;;;;;;3.63;2.60;;;;;;;;;;5044011;28;20490;-83
2022/04/17 14:07:46;;;;;;;6.00;3.17;;;;;;;;;;5053272;28;20468;-82
2022/04/17 14:10:12;;;;;;;3.20;2.47;;;;;;;;;;5057022;28;20417;-83
2022/04/17 14:12:39;;;;;;;4.70;3.10;;;;;;;;;;5049525;28;20414;-83
2022/04/17 14:15:06;;;;;;;2.90;2.60;;;;;;;;;;5047131;28;20899;-83
2022/04/17 14:17:32;;;;;;;4.87;2.77;;;;;;;;;;5042834;28;20911;-83
2022/04/17 14:19:58;;;;;;;2.90;2.40;;;;;;;;;;5046655;28;20438;-83
2022/04/17 14:22:24;;;;;;;4.20;2.63;;;;;;;;;;5042635;28;20449;-83
2022/04/17 14:24:53;;;;;;;3.10;2.60;;;;;;;;;;5042082;28;20403;-83
2022/04/17 14:27:22;;;;;;;3.73;2.63;;;;;;;;;;5043405;28;21021;-84
2022/04/17 14:29:49;;;;;;;3.07;2.43;;;;;;;;;;5024669;28;20415;-83
2022/04/17 14:32:16;;;;;;;3.00;2.43;;;;;;;;;;5042394;28;20501;-83
2022/04/17 14:34:44;;;;;;;4.37;2.57;;;;;;;;;;5049767;28;20436;-82
2022/04/17 14:37:10;;;;;;;6.73;2.93;;;;;;;;;;5053238;28;20407;-82
2022/04/17 14:39:36;;;;;;;3.93;3.20;;;;;;;;;;5053619;28;20410;-81
2022/04/17 14:42:02;;;;;;;4.80;3.10;;;;;;;;;;5054000;28;20442;-82
2022/04/17 14:44:28;;;;;;;3.53;2.27;;;;;;;;;;5050472;28;20406;-83
2022/04/17 14:46:55;;;;;;;4.10;2.83;;;;;;;;;;5024919;28;20410;-83
2022/04/17 14:49:22;;;;;;;3.70;2.67;;;;;;;;;;5042215;28;20409;-82
2022/04/17 14:51:48;;;;;;;3.67;2.80;;;;;;;;;;5047824;28;20453;-81
2022/04/17 14:54:15;;;;;;;4.20;2.80;;;;;;;;;;5041985;28;20425;-82